ilmateenistus.ee keskkonnaagentuur.ee
EETN Tallinna lennuväli
FTEO31 EETN 171700
TAF EETN 171705Z 1718/1818 22008KT 9999 BKN020 PROB30 TEMPO 1718/1801
    3000 SN BR BKN004 OVC030 TEMPO 1801/1815 SCT020=

METAR EETN 171720Z 27008KT 9999 OVC016 00/M02 Q1013 R08/610295 NOSIG=
Tallinna lennuväli
EEKA Kärdla lennuväli
FCEO32 EETN 171300 AAA
TAF AMD EEKA 171700Z 1714/1720 CNL=

METAR EEKA 171650Z NIL=
Kärdla lennuväli
EEKE Kuressaare lennuväli
FCEO32 EETN 171500
TAF EEKE 171500Z 1716/1722 VRB02KT 9999 BKN010 TEMPO 1716/1722 1000
    BR BKN003=

METAR EEKE 171650Z 00000KT 9999 SCT031 BKN037 M00/M01 Q1015 R17/290095=
Kuressaare lennuväli
EEPU Pärnu lennuväli
METAR EEPU 171650Z NIL=
Pärnu lennuväli
EETU Tartu lennuväli
FCEO32 EETN 171700
TAF EETU 171700Z 1718/1724 24006KT 6000 BKN006 OVC025 TEMPO 1718/1721
    2000 SN BR OVC003=

Tartu lennuväli
EEEI Ämari lennuväli
METAR EEEI 171720Z AUTO VRB01KT 9999 SCT020 BKN023 M01/M01 Q1014 R24/190095=
Ämari lennuväli